WetterOnline ( https://www.wetteronline.de )

Wetter aktuell Heide

Aktuelles Wetter: Heide/Elpersbüttel (5m)

6-stündlich | Neueste Meldungen
Ortszeit Temperatur Wetter
Sa, 18.01. 7:00 5.1° C wolkenlos
Sa, 18.01. 1:00 6.2° C wolkig
Fr, 17.01. 19:00 7.8° C leichter Regen
Fr, 17.01. 13:00 9.1° C bewölkt
Fr, 17.01. 7:00 6.7° C leicht bewölkt
Fr, 17.01. 1:00 6.1° C wolkig
Do, 16.01. 19:00 5.6° C wolkig
Do, 16.01. 13:00 7.8° C leicht bewölkt
Ortszeit Temperatur Wetter
Sa, 18.01. 9:40 5.1° C bewölkt
Sa, 18.01. 9:30 4.9° C wolkig
Sa, 18.01. 9:20 4.9° C wolkig
Sa, 18.01. 9:10 4.9° C leicht bewölkt
Sa, 18.01. 9:00 4.4° C fast wolkenlos
Sa, 18.01. 8:50 4.4° C fast wolkenlos
Sa, 18.01. 8:30 4.1° C wolkenlos
Sa, 18.01. 8:00 4.4° C fast wolkenlos
Sa, 18.01. 7:30 4.8° C wolkenlos
Sa, 18.01. 7:00 5.1° C wolkenlos
Sa, 18.01. 6:30 5.1° C fast wolkenlos
Ortszeit Relative Feuchte Sichtweite
Sa, 18.01. 7:00 89% 35 km
Sa, 18.01. 1:00 86% 45 km
Fr, 17.01. 19:00 98% 10 km
Fr, 17.01. 13:00 80% 50 km
Fr, 17.01. 7:00 85% 40 km
Fr, 17.01. 1:00 92% 28 km
Do, 16.01. 19:00 90% 28 km
Do, 16.01. 13:00 88% 21 km
Ortszeit Relative Feuchte Sichtweite
Sa, 18.01. 9:40 90% -
Sa, 18.01. 9:30 90% 30 km
Sa, 18.01. 9:20 90% -
Sa, 18.01. 9:10 91% -
Sa, 18.01. 9:00 93% 27 km
Sa, 18.01. 8:50 93% -
Sa, 18.01. 8:30 93% 30 km
Sa, 18.01. 8:00 91% 30 km
Sa, 18.01. 7:30 90% 35 km
Sa, 18.01. 7:00 89% 35 km
Sa, 18.01. 6:30 91% 30 km
Ortszeit Niederschlagsmenge Niederschlagsart
Sa, 18.01. 7:00 1 l/m2 in 12 Std. Regen
Sa, 18.01. 1:00 1 l/m2 in 6 Std. Regen
Fr, 17.01. 19:00 2 l/m2 in 12 Std. Regen
Fr, 17.01. 13:00 0.0 l/m2 in 6 Std. -
Fr, 17.01. 7:00 0.0 l/m2 in 12 Std. -
Fr, 17.01. 1:00 0.0 l/m2 in 6 Std. -
Do, 16.01. 19:00 0.0 l/m2 in 12 Std. -
Do, 16.01. 13:00 0.0 l/m2 in 6 Std. -
Ortszeit Niederschlagsmenge Niederschlagsart
Sa, 18.01. 9:40 keine Meldung -
Sa, 18.01. 9:30 0.0 l/m2 in 1 Std. -
Sa, 18.01. 9:20 keine Meldung -
Sa, 18.01. 9:10 keine Meldung -
Sa, 18.01. 9:00 0.0 l/m2 in 1 Std. -
Sa, 18.01. 8:50 keine Meldung -
Sa, 18.01. 8:30 0.0 l/m2 in 1 Std. -
Sa, 18.01. 8:00 0.0 l/m2 in 1 Std. -
Sa, 18.01. 7:30 0.0 l/m2 in 1 Std. -
Sa, 18.01. 7:00 0.0 l/m2 in 1 Std. Regen
Sa, 18.01. 6:30 0.0 l/m2 in 1 Std. -
Ortszeit Stärke Spitze Richtung
km/h Bft. km/h Grad Sektor
Sa, 18.01. 7:00 40 6 65 220° SW
Sa, 18.01. 1:00 36 5 47 220° SW
Fr, 17.01. 19:00 18 3 32 200° S
Fr, 17.01. 13:00 20 4 37 180° S
Fr, 17.01. 7:00 18 3 36 160° S
Fr, 17.01. 1:00 14 3 32 150° SO
Do, 16.01. 19:00 9 2 26 150° SO
Do, 16.01. 13:00 22 4 41 200° S
Ortszeit Stärke Spitze Richtung
km/h Bft. km/h Grad Sektor
Sa, 18.01. 9:40 36 5 - 220° SW
Sa, 18.01. 9:30 37 5 52 220° SW
Sa, 18.01. 9:20 37 5 - 220° SW
Sa, 18.01. 9:10 37 5 - 220° SW
Sa, 18.01. 9:00 35 5 48 220° SW
Sa, 18.01. 8:50 35 5 - 220° SW
Sa, 18.01. 8:30 32 5 43 220° SW
Sa, 18.01. 8:00 35 5 56 220° SW
Sa, 18.01. 7:30 37 5 56 230° SW
Sa, 18.01. 7:00 40 6 54 220° SW
Sa, 18.01. 6:30 37 5 52 230° SW
Ortszeit Untergrenze Bedeckung Gattung
total tief tief mittel hoch
Sa, 18.01. 7:00 - 0/8 0/8 - - -
Sa, 18.01. 1:00 630 m 5/8 6/8 - - -
Fr, 17.01. 19:00 390 m 8/8 8/8 - - -
Fr, 17.01. 13:00 2700 m 7/8 7/8 - - -
Fr, 17.01. 7:00 7200 m 4/8 0/8 - - -
Fr, 17.01. 1:00 9000 m 8/8 0/8 - - -
Do, 16.01. 19:00 9000 m 8/8 0/8 - - -
Do, 16.01. 13:00 7500 m 7/8 0/8 - - -
Ortszeit Bedeckungsgrad in Achtel und Wolkenuntergrenze
Sa, 18.01. 9:40 5(480m) 7(1050m) 7(1320m)
Sa, 18.01. 9:30 5(450m) 6(600m) 7(1320m)
Sa, 18.01. 9:20 5(450m) 6(600m)
Sa, 18.01. 9:10 4(540m)
Sa, 18.01. 9:00 1(570m)
Sa, 18.01. 8:50 1(570m)
Sa, 18.01. 8:30 keine Wolken
Sa, 18.01. 8:00 1(1440m)
Sa, 18.01. 7:30 keine Wolken
Sa, 18.01. 7:00 keine Wolken
Sa, 18.01. 6:30 1(720m)
Ortszeit Luftdruck NN (hPa) Tendenz (hPa in 3 Std.)
Sa, 18.01. 7:00 1016 + 0,8
Sa, 18.01. 1:00 1013 + 1,0
Fr, 17.01. 19:00 1012 0,0
Fr, 17.01. 13:00 1013 - 1,1
Fr, 17.01. 7:00 1016 - 1,7
Fr, 17.01. 1:00 1020 - 1,7
Do, 16.01. 19:00 1023 - 0,9
Do, 16.01. 13:00 1025 + 0,4
Ortszeit Luftdruck NN (hPa) Tendenz (hPa in 3 Std.)
Sa, 18.01. 9:40 1017 keine Meldung
Sa, 18.01. 9:30 1017 + 1,5
Sa, 18.01. 9:20 1017 keine Meldung
Sa, 18.01. 9:10 1017 keine Meldung
Sa, 18.01. 9:00 1017 + 1,4
Sa, 18.01. 8:50 1017 keine Meldung
Sa, 18.01. 8:30 1017 + 1,3
Sa, 18.01. 8:00 1017 + 1,2
Sa, 18.01. 7:30 1016 + 1,1
Sa, 18.01. 7:00 1016 + 0,8
Sa, 18.01. 6:30 1016 + 1,3
Ortszeit Schneehöhe (cm)
Sa, 18.01. 7:00 0
Sa, 18.01. 1:00 0
Fr, 17.01. 19:00 0
Fr, 17.01. 13:00 0
Fr, 17.01. 7:00 0
Fr, 17.01. 1:00 0
Do, 16.01. 19:00 0
Do, 16.01. 13:00 0
Ortszeit Schneehöhe (cm)
Sa, 18.01. 9:40 0
Sa, 18.01. 9:30 0
Sa, 18.01. 9:20 0
Sa, 18.01. 9:10 0
Sa, 18.01. 9:00 0
Sa, 18.01. 8:50 0
Sa, 18.01. 8:30 0
Sa, 18.01. 8:00 0
Sa, 18.01. 7:30 0
Sa, 18.01. 7:00 0
Sa, 18.01. 6:30 0
Link zu dieser Seite / Seite empfehlen

Das Wetter in ...